createdAt,value
2022-11-28T00:01:43.357Z,8.23
2022-11-28T00:03:45.511Z,8.18
2022-11-28T00:05:47.627Z,8.16
2022-11-28T00:07:50.054Z,8.23
2022-11-28T00:09:53.009Z,8.22
2022-11-28T00:11:55.228Z,8.22
2022-11-28T00:13:57.009Z,8.13
2022-11-28T00:16:00.774Z,8.16
2022-11-28T00:18:02.923Z,8.21
2022-11-28T00:20:05.805Z,8.24
2022-11-28T00:22:07.924Z,8.23
2022-11-28T00:24:10.107Z,8.31
2022-11-28T00:26:30.551Z,8.26
2022-11-28T00:28:33.141Z,8.30
2022-11-28T00:30:38.546Z,8.12
2022-11-28T00:32:40.443Z,8.14
2022-11-28T00:34:42.816Z,8.10
2022-11-28T00:36:48.033Z,8.17
2022-11-28T00:38:50.663Z,8.27
2022-11-28T00:41:03.082Z,8.25
2022-11-28T00:43:04.924Z,8.24
2022-11-28T00:45:07.262Z,8.32
2022-11-28T00:47:09.341Z,8.29
2022-11-28T00:49:11.302Z,8.27
2022-11-28T00:51:18.649Z,8.31
2022-11-28T00:53:21.205Z,8.37
2022-11-28T00:55:23.242Z,8.34
2022-11-28T00:57:25.058Z,8.31
2022-11-28T00:59:27.278Z,8.31
2022-11-28T01:01:31.825Z,8.32
2022-11-28T01:03:33.650Z,8.19
2022-11-28T01:05:41.710Z,8.24
2022-11-28T01:07:43.915Z,8.14
2022-11-28T01:09:45.745Z,7.97
2022-11-28T01:11:49.552Z,8.11
2022-11-28T01:13:54.509Z,7.98
2022-11-28T01:15:56.389Z,7.97
2022-11-28T01:17:58.656Z,7.92
2022-11-28T01:20:00.450Z,8.10
2022-11-28T01:22:02.198Z,8.00
2022-11-28T01:24:04.642Z,8.06
2022-11-28T01:26:09.140Z,8.02
2022-11-28T01:28:10.921Z,8.05
2022-11-28T01:30:13.262Z,8.07
2022-11-28T01:32:15.358Z,8.08
2022-11-28T01:34:18.159Z,8.04
2022-11-28T01:36:21.845Z,8.02
2022-11-28T01:38:23.950Z,7.92
2022-11-28T01:40:25.867Z,8.04
2022-11-28T01:42:28.281Z,8.04
2022-11-28T01:44:30.084Z,8.08
2022-11-28T01:46:32.792Z,8.13
2022-11-28T01:48:42.119Z,8.07
2022-11-28T01:50:47.941Z,8.00
2022-11-28T01:52:54.178Z,8.02
2022-11-28T01:55:00.679Z,8.01
2022-11-28T01:57:11.042Z,8.11
2022-11-28T01:59:15.341Z,8.02
2022-11-28T02:01:18.934Z,7.95
2022-11-28T02:03:26.540Z,8.04
2022-11-28T02:05:28.337Z,8.00
2022-11-28T02:07:30.147Z,8.05
2022-11-28T02:09:32.314Z,8.13
2022-11-28T02:11:36.801Z,8.12
2022-11-28T02:13:55.173Z,8.20
2022-11-28T02:16:34.952Z,8.07
2022-11-28T02:19:12.136Z,8.21
2022-11-28T02:21:38.763Z,8.23
2022-11-28T02:23:46.271Z,8.21
2022-11-28T02:26:19.258Z,8.18
2022-11-28T02:28:42.899Z,8.19
2022-11-28T02:31:12.145Z,8.20
2022-11-28T02:33:31.739Z,8.19
2022-11-28T02:35:39.563Z,8.26
2022-11-28T02:37:56.694Z,8.27
2022-11-28T02:40:20.399Z,8.22
2022-11-28T02:42:26.658Z,8.14
2022-11-28T02:44:47.486Z,8.04
2022-11-28T02:47:00.240Z,8.05
2022-11-28T02:49:06.764Z,8.08
2022-11-28T02:51:15.730Z,8.12
2022-11-28T02:53:23.197Z,7.98
2022-11-28T02:55:25.941Z,7.96
2022-11-28T02:57:38.646Z,7.96
2022-11-28T02:59:40.690Z,7.90
2022-11-28T03:01:42.722Z,7.96
2022-11-28T03:04:02.620Z,8.06
2022-11-28T03:06:23.101Z,8.05
2022-11-28T03:08:40.136Z,8.06
2022-11-28T03:11:03.782Z,7.96
2022-11-28T03:13:11.549Z,7.96
2022-11-28T03:15:16.975Z,7.89
2022-11-28T03:17:48.431Z,7.78
2022-11-28T03:19:58.517Z,7.78
2022-11-28T03:22:15.816Z,7.75
2022-11-28T03:24:31.243Z,7.56
2022-11-28T03:27:00.931Z,7.56
2022-11-28T03:29:11.661Z,7.48
2022-11-28T03:31:24.940Z,7.36
2022-11-28T03:33:32.410Z,7.43
2022-11-28T03:35:39.768Z,7.53
2022-11-28T03:37:53.911Z,7.60
2022-11-28T03:40:00.740Z,7.70
2022-11-28T03:42:10.125Z,7.74
2022-11-28T03:44:21.256Z,7.70
2022-11-28T03:46:30.026Z,7.89
2022-11-28T03:48:35.908Z,7.90
2022-11-28T03:50:43.418Z,7.98
2022-11-28T03:52:51.450Z,7.99
2022-11-28T03:55:01.020Z,8.01
2022-11-28T03:57:20.836Z,7.93
2022-11-28T03:59:37.493Z,7.98
2022-11-28T04:01:55.872Z,8.05
2022-11-28T04:04:27.264Z,8.00
2022-11-28T04:06:37.749Z,7.99
2022-11-28T04:09:02.999Z,7.91
2022-11-28T04:11:25.588Z,7.79
2022-11-28T04:13:34.295Z,7.86
2022-11-28T04:15:45.479Z,7.92
2022-11-28T04:18:20.017Z,7.89
2022-11-28T04:20:59.033Z,7.90
2022-11-28T04:23:06.282Z,7.88
2022-11-28T04:25:14.013Z,7.91
2022-11-28T04:27:23.562Z,7.99
2022-11-28T04:29:27.310Z,7.96
2022-11-28T04:31:31.105Z,7.99
2022-11-28T04:33:38.097Z,7.97
2022-11-28T04:35:44.462Z,7.94
2022-11-28T04:37:48.846Z,7.87
2022-11-28T04:39:52.471Z,7.90
2022-11-28T04:42:10.652Z,8.04
2022-11-28T04:44:22.017Z,8.04
2022-11-28T04:46:30.161Z,7.97
2022-11-28T04:48:34.457Z,7.92
2022-11-28T04:50:49.218Z,7.68
2022-11-28T04:52:54.935Z,7.81
2022-11-28T04:55:19.003Z,7.77
2022-11-28T04:57:28.365Z,7.77
2022-11-28T04:59:31.725Z,7.83
2022-11-28T05:01:35.207Z,7.83
2022-11-28T05:03:42.551Z,7.82
2022-11-28T05:05:48.033Z,7.88
2022-11-28T05:07:50.263Z,7.76
2022-11-28T05:09:52.098Z,7.71
2022-11-28T05:11:54.110Z,7.74
2022-11-28T05:13:56.301Z,7.67
2022-11-28T05:16:01.082Z,7.70
2022-11-28T05:18:03.292Z,7.77
2022-11-28T05:20:06.923Z,7.74
2022-11-28T05:22:08.826Z,7.75
2022-11-28T05:24:11.082Z,7.69
2022-11-28T05:26:18.566Z,7.64
2022-11-28T05:28:20.444Z,7.75
2022-11-28T05:30:22.255Z,7.68
2022-11-28T05:32:24.404Z,7.75
2022-11-28T05:34:26.217Z,7.66
2022-11-28T05:36:28.006Z,7.65
2022-11-28T05:38:32.285Z,7.66
2022-11-28T05:40:34.270Z,7.60
2022-11-28T05:42:36.797Z,7.50
2022-11-28T05:44:39.253Z,7.44
2022-11-28T05:46:41.030Z,7.53
2022-11-28T05:48:42.861Z,7.54
2022-11-28T05:50:44.991Z,7.64
2022-11-28T05:52:46.786Z,7.50
2022-11-28T05:54:48.594Z,7.55
2022-11-28T05:56:50.707Z,7.51
2022-11-28T05:58:54.289Z,7.55
2022-11-28T06:00:56.044Z,7.40
2022-11-28T06:03:01.467Z,7.50
2022-11-28T06:05:16.541Z,7.48
2022-11-28T06:07:26.318Z,7.59
2022-11-28T06:09:28.127Z,7.51
2022-11-28T06:11:31.664Z,7.48
2022-11-28T06:13:33.555Z,7.40
2022-11-28T06:15:38.197Z,7.54
2022-11-28T06:17:40.958Z,7.42
2022-11-28T06:19:43.059Z,7.34
2022-11-28T06:21:45.342Z,7.29
2022-11-28T06:23:47.615Z,7.14
2022-11-28T06:25:49.482Z,7.19
2022-11-28T06:27:51.591Z,7.10
2022-11-28T06:29:53.474Z,7.08
2022-11-28T06:31:56.255Z,7.27
2022-11-28T06:33:58.815Z,7.25
2022-11-28T06:36:01.757Z,7.29
2022-11-28T06:38:03.928Z,7.35
2022-11-28T06:40:06.355Z,7.35
2022-11-28T06:42:08.527Z,7.43
2022-11-28T06:44:14.652Z,7.47
2022-11-28T06:46:20.184Z,7.56
2022-11-28T06:48:23.483Z,7.30
2022-11-28T06:50:25.335Z,7.44
2022-11-28T06:52:27.473Z,7.26
2022-11-28T06:54:29.648Z,7.52
2022-11-28T06:56:32.203Z,7.46
2022-11-28T06:58:34.418Z,7.41
2022-11-28T07:00:37.890Z,7.42
2022-11-28T07:02:39.841Z,6.91
2022-11-28T07:04:41.690Z,7.10
2022-11-28T07:06:44.883Z,7.06
2022-11-28T07:08:47.373Z,6.47
2022-11-28T07:10:49.170Z,6.93
2022-11-28T07:12:55.901Z,7.02
2022-11-28T07:14:57.683Z,6.69
2022-11-28T07:17:00.269Z,6.65
2022-11-28T07:19:02.498Z,6.73
2022-11-28T07:21:04.368Z,6.60
2022-11-28T07:23:07.375Z,6.70
2022-11-28T07:25:10.089Z,6.83
2022-11-28T07:27:11.921Z,6.97
2022-11-28T07:29:15.979Z,7.10
2022-11-28T07:31:25.414Z,7.12
2022-11-28T07:33:28.170Z,7.32
2022-11-28T07:35:32.893Z,7.33
2022-11-28T07:37:36.240Z,7.20
2022-11-28T07:39:39.074Z,7.21
2022-11-28T07:41:40.874Z,7.15
2022-11-28T07:43:43.961Z,7.22
2022-11-28T07:46:00.159Z,7.24
2022-11-28T07:48:03.258Z,7.29
2022-11-28T07:50:06.266Z,7.20
2022-11-28T07:52:08.094Z,7.18
2022-11-28T07:54:10.239Z,7.30
2022-11-28T07:56:15.538Z,7.24
2022-11-28T07:58:18.493Z,7.25
2022-11-28T08:00:21.339Z,7.17
2022-11-28T08:02:23.601Z,7.23
2022-11-28T08:04:26.328Z,7.11
2022-11-28T08:06:30.022Z,7.36
2022-11-28T08:08:33.158Z,7.35
2022-11-28T08:10:34.934Z,7.32
2022-11-28T08:12:36.771Z,7.30
2022-11-28T08:14:38.922Z,7.43
2022-11-28T08:16:44.973Z,7.54
2022-11-28T08:18:48.346Z,7.46
2022-11-28T08:20:50.501Z,7.56
2022-11-28T08:22:52.288Z,7.68
2022-11-28T08:24:54.320Z,7.88
2022-11-28T08:26:57.093Z,7.82
2022-11-28T08:29:01.335Z,8.08
2022-11-28T08:31:11.092Z,8.20
2022-11-28T08:33:13.872Z,8.24
2022-11-28T08:35:15.722Z,8.22
2022-11-28T08:37:17.882Z,8.32
2022-11-28T08:39:24.384Z,8.53
2022-11-28T08:41:26.961Z,8.52
2022-11-28T08:43:29.547Z,8.86
2022-11-28T08:45:32.091Z,8.80
2022-11-28T08:47:33.988Z,8.72
2022-11-28T08:49:37.250Z,8.60
2022-11-28T08:51:39.053Z,8.54
2022-11-28T08:53:43.152Z,8.49
2022-11-28T08:55:48.018Z,8.01
2022-11-28T08:57:49.795Z,8.31
2022-11-28T08:59:51.631Z,8.43
2022-11-28T09:01:54.570Z,8.59
2022-11-28T09:03:57.013Z,8.44
2022-11-28T09:06:02.622Z,8.58
2022-11-28T09:08:08.848Z,8.75
2022-11-28T09:10:12.141Z,8.60
2022-11-28T09:12:14.406Z,8.94
2022-11-28T09:14:16.236Z,9.08
2022-11-28T09:16:18.251Z,9.04
2022-11-28T09:18:20.711Z,9.04
2022-11-28T09:20:22.527Z,9.29
2022-11-28T09:22:24.325Z,9.29
2022-11-28T09:24:26.584Z,9.62
2022-11-28T09:26:29.982Z,9.63
2022-11-28T09:28:31.762Z,9.49
2022-11-28T09:30:34.666Z,9.44
2022-11-28T09:32:36.547Z,9.71
2022-11-28T09:34:38.799Z,9.51
2022-11-28T09:36:40.754Z,9.14
2022-11-28T09:38:46.490Z,8.95
2022-11-28T09:40:49.095Z,8.67
2022-11-28T09:42:51.242Z,8.98
2022-11-28T09:45:02.763Z,8.99
2022-11-28T09:47:14.463Z,9.02
2022-11-28T09:49:35.279Z,8.33
2022-11-28T09:52:10.142Z,8.66
2022-11-28T09:54:31.122Z,8.49
2022-11-28T09:56:33.263Z,8.25
2022-11-28T09:58:59.079Z,8.37
2022-11-28T10:01:25.487Z,8.60
2022-11-28T10:03:46.188Z,8.63
2022-11-28T10:06:16.259Z,8.96
2022-11-28T10:08:39.932Z,8.65
2022-11-28T10:10:58.170Z,8.57
2022-11-28T10:13:20.154Z,8.47
2022-11-28T10:15:29.503Z,8.58
2022-11-28T10:17:47.415Z,8.67
2022-11-28T10:20:04.019Z,8.36
2022-11-28T10:22:16.884Z,8.39
2022-11-28T10:24:29.378Z,8.46
2022-11-28T10:26:37.586Z,8.43
2022-11-28T10:28:43.892Z,8.42
2022-11-28T10:30:53.746Z,8.34
2022-11-28T10:33:05.554Z,8.33
2022-11-28T10:35:33.238Z,8.62
2022-11-28T10:37:37.157Z,8.36
2022-11-28T10:39:43.637Z,8.43
2022-11-28T10:42:16.731Z,8.69
2022-11-28T10:44:30.841Z,8.67
2022-11-28T10:46:57.689Z,8.80
2022-11-28T10:49:13.067Z,8.80
2022-11-28T10:51:38.430Z,8.75
2022-11-28T10:54:05.617Z,8.77
2022-11-28T10:56:22.481Z,8.53
2022-11-28T10:58:55.906Z,8.70
2022-11-28T11:00:58.522Z,8.68
2022-11-28T11:03:02.397Z,8.38
2022-11-28T11:05:06.316Z,8.30
2022-11-28T11:07:22.760Z,8.41
2022-11-28T11:09:26.158Z,8.46
2022-11-28T11:11:34.644Z,8.04
2022-11-28T11:14:04.123Z,8.22
2022-11-28T11:16:08.246Z,8.58
2022-11-28T11:18:31.189Z,8.72
2022-11-28T11:20:37.139Z,8.65
2022-11-28T11:22:38.910Z,8.40
2022-11-28T11:24:41.083Z,8.48
2022-11-28T11:26:49.267Z,8.53
2022-11-28T11:28:52.203Z,8.55
2022-11-28T11:31:06.996Z,8.41
2022-11-28T11:33:18.205Z,8.34
2022-11-28T11:35:23.776Z,8.09
2022-11-28T11:37:35.806Z,8.02
2022-11-28T11:39:48.136Z,7.94
2022-11-28T11:42:10.640Z,8.26
2022-11-28T11:44:20.674Z,8.36
2022-11-28T11:46:23.532Z,8.17
2022-11-28T11:48:39.888Z,7.99
2022-11-28T11:50:56.646Z,8.24
2022-11-28T11:53:03.220Z,8.09
2022-11-28T11:55:12.422Z,7.94
2022-11-28T11:57:32.682Z,8.16
2022-11-28T11:59:50.602Z,8.32
2022-11-28T12:02:00.432Z,8.31
2022-11-28T12:04:23.674Z,8.26
2022-11-28T12:06:39.507Z,8.24
2022-11-28T12:08:50.646Z,8.26
2022-11-28T12:11:02.015Z,8.29
2022-11-28T12:13:04.637Z,8.09
2022-11-28T12:15:17.790Z,8.09
2022-11-28T12:18:00.767Z,7.95
2022-11-28T12:20:29.911Z,8.10
2022-11-28T12:22:53.310Z,8.22
2022-11-28T12:25:11.819Z,7.54
2022-11-28T12:27:28.544Z,8.05
2022-11-28T12:29:40.587Z,7.83
2022-11-28T12:32:01.806Z,7.96
2022-11-28T12:34:21.901Z,7.95
2022-11-28T12:36:36.547Z,8.07
2022-11-28T12:39:22.963Z,8.23
2022-11-28T12:41:40.163Z,8.23
2022-11-28T12:43:46.564Z,8.46
2022-11-28T12:46:19.961Z,8.24
2022-11-28T12:48:58.669Z,8.35
2022-11-28T12:51:20.929Z,8.32
2022-11-28T12:53:35.283Z,8.40
2022-11-28T12:55:49.346Z,8.33
2022-11-28T12:57:55.512Z,8.40
2022-11-28T13:00:11.404Z,8.32
2022-11-28T13:02:16.255Z,8.33
2022-11-28T13:04:51.395Z,8.07
2022-11-28T13:07:12.135Z,7.87
2022-11-28T13:09:21.639Z,8.07
2022-11-28T13:11:42.611Z,8.05
2022-11-28T13:14:09.339Z,8.16
2022-11-28T13:16:27.195Z,8.14
2022-11-28T13:18:38.810Z,8.00
2022-11-28T13:20:52.832Z,7.85
2022-11-28T13:23:01.357Z,7.91
2022-11-28T13:25:24.920Z,7.96
2022-11-28T13:27:27.754Z,8.06
2022-11-28T13:29:48.147Z,7.93
2022-11-28T13:32:12.703Z,7.85
2022-11-28T13:34:18.398Z,7.91
2022-11-28T13:39:12.961Z,7.88
2022-11-28T13:42:05.809Z,7.92
2022-11-28T13:44:04.661Z,7.89
2022-11-28T13:46:10.319Z,7.93
2022-11-28T13:48:57.635Z,8.06
2022-11-28T13:51:01.684Z,8.14
2022-11-28T13:53:06.442Z,8.20
2022-11-28T13:55:46.900Z,8.15
2022-11-28T13:57:49.820Z,8.10
2022-11-28T14:00:04.863Z,8.18
2022-11-28T14:02:22.466Z,7.89
2022-11-28T14:04:27.000Z,7.90
2022-11-28T14:06:40.583Z,7.98
2022-11-28T14:08:46.207Z,7.76
2022-11-28T14:11:28.065Z,7.92
2022-11-28T14:13:48.216Z,7.99
2022-11-28T14:16:07.785Z,7.86
2022-11-28T14:21:02.039Z,7.93
2022-11-28T14:23:27.146Z,7.98
2022-11-28T14:25:33.767Z,7.75
2022-11-28T14:27:38.809Z,7.90
2022-11-28T14:29:41.960Z,7.83
2022-11-28T14:32:00.651Z,7.51
2022-11-28T14:34:48.029Z,7.74
2022-11-28T14:37:10.212Z,7.89
2022-11-28T14:39:33.047Z,7.50
2022-11-28T14:42:58.769Z,7.60
2022-11-28T14:45:04.806Z,7.91
2022-11-28T14:47:26.912Z,7.75
2022-11-28T14:49:28.713Z,7.72
2022-11-28T14:51:56.516Z,8.06
2022-11-28T14:54:35.514Z,7.48
2022-11-28T14:56:40.160Z,7.62
2022-11-28T14:58:50.100Z,7.91
2022-11-28T15:00:56.105Z,7.94
2022-11-28T15:03:10.447Z,8.12
2022-11-28T15:05:20.741Z,8.16
2022-11-28T15:07:22.534Z,8.10
2022-11-28T15:09:37.561Z,8.16
2022-11-28T15:12:19.505Z,7.97
2022-11-28T15:14:23.893Z,7.88
2022-11-28T15:16:30.304Z,7.96
2022-11-28T15:18:33.094Z,7.96
2022-11-28T15:20:47.642Z,8.07
2022-11-28T15:22:49.438Z,8.10
2022-11-28T15:24:52.547Z,7.87
2022-11-28T15:27:15.891Z,8.10
2022-11-28T15:29:18.115Z,8.12
2022-11-28T15:31:22.759Z,8.00
2022-11-28T15:33:26.460Z,8.04
2022-11-28T15:35:28.745Z,7.84
2022-11-28T15:37:33.914Z,7.96
2022-11-28T15:39:40.679Z,7.95
2022-11-28T15:41:45.959Z,7.92
2022-11-28T15:43:47.873Z,7.76
2022-11-28T15:45:52.972Z,7.91
2022-11-28T15:47:56.359Z,8.00
2022-11-28T15:50:01.718Z,8.10
2022-11-28T15:52:05.508Z,7.79
2022-11-28T15:54:30.973Z,7.94
2022-11-28T15:56:34.950Z,7.75
2022-11-28T15:58:37.805Z,8.10
2022-11-28T16:00:44.065Z,7.80
2022-11-28T16:02:46.839Z,7.89
2022-11-28T16:04:53.728Z,7.84
2022-11-28T16:06:57.497Z,7.85
2022-11-28T16:09:35.140Z,7.92
2022-11-28T16:11:37.050Z,7.47
2022-11-28T16:13:40.409Z,7.69
2022-11-28T16:15:49.910Z,7.70
2022-11-28T16:17:54.887Z,7.73
2022-11-28T16:19:58.292Z,7.71
2022-11-28T16:22:02.409Z,7.79
2022-11-28T16:24:25.466Z,7.91
2022-11-28T16:26:34.903Z,7.82
2022-11-28T16:28:39.601Z,7.66
2022-11-28T16:30:48.262Z,7.43
2022-11-28T16:32:51.754Z,7.48
2022-11-28T16:34:55.662Z,7.68
2022-11-28T16:36:57.696Z,7.59
2022-11-28T16:39:15.754Z,7.67
2022-11-28T16:41:27.006Z,7.55
2022-11-28T16:43:40.313Z,7.44
2022-11-28T16:45:42.671Z,7.39
2022-11-28T16:47:45.719Z,7.50
2022-11-28T16:50:05.688Z,7.58
2022-11-28T16:52:43.865Z,7.43
2022-11-28T16:54:45.722Z,7.26
2022-11-28T16:56:47.981Z,7.43
2022-11-28T16:58:56.343Z,7.32
2022-11-28T17:01:05.217Z,6.66
2022-11-28T17:03:40.993Z,6.76
2022-11-28T17:05:42.782Z,7.02
2022-11-28T17:07:46.023Z,6.89
2022-11-28T17:09:48.556Z,7.16
2022-11-28T17:12:04.990Z,7.30
2022-11-28T17:14:13.086Z,7.32
2022-11-28T17:16:21.797Z,7.35
2022-11-28T17:18:23.692Z,7.25
2022-11-28T17:20:26.767Z,7.19
2022-11-28T17:22:40.421Z,7.12
2022-11-28T17:24:44.087Z,7.16
2022-11-28T17:26:46.660Z,6.91
2022-11-28T17:28:48.437Z,6.98
2022-11-28T17:30:50.625Z,7.13
2022-11-28T17:32:52.547Z,7.02
2022-11-28T17:34:54.851Z,6.92
2022-11-28T17:36:58.553Z,6.70
2022-11-28T17:39:05.181Z,6.81
2022-11-28T17:41:13.726Z,6.98
2022-11-28T17:43:21.757Z,6.82
2022-11-28T17:45:28.794Z,6.89
2022-11-28T17:47:33.202Z,6.89
2022-11-28T17:49:34.914Z,7.02
2022-11-28T17:51:37.153Z,6.85
2022-11-28T17:53:39.623Z,6.59
2022-11-28T17:55:43.179Z,6.84
2022-11-28T17:57:45.162Z,6.82
2022-11-28T17:59:47.887Z,6.77
2022-11-28T18:01:51.118Z,6.66
2022-11-28T18:03:53.585Z,6.35
2022-11-28T18:05:57.180Z,6.58
2022-11-28T18:07:59.395Z,6.57
2022-11-28T18:10:01.420Z,6.66
2022-11-28T18:12:05.752Z,6.85
2022-11-28T18:14:09.408Z,6.74
2022-11-28T18:16:14.146Z,6.94
2022-11-28T18:18:16.405Z,6.80
2022-11-28T18:20:18.239Z,6.85
2022-11-28T18:22:21.454Z,6.68
2022-11-28T18:24:23.262Z,6.74
2022-11-28T18:26:26.236Z,6.16
2022-11-28T18:28:28.442Z,6.22
2022-11-28T18:30:30.323Z,6.17
2022-11-28T18:32:32.905Z,6.26
2022-11-28T18:34:34.702Z,6.14
2022-11-28T18:36:39.234Z,6.33
2022-11-28T18:38:42.294Z,6.31
2022-11-28T18:40:44.136Z,6.27
2022-11-28T18:42:48.187Z,6.14
2022-11-28T18:44:50.310Z,6.39
2022-11-28T18:46:53.744Z,6.23
2022-11-28T18:48:59.822Z,6.13
2022-11-28T18:51:02.011Z,5.96
2022-11-28T18:53:03.821Z,6.19
2022-11-28T18:55:05.930Z,6.23
2022-11-28T18:57:08.673Z,6.25
2022-11-28T18:59:10.930Z,6.32
2022-11-28T19:01:12.814Z,5.93
2022-11-28T19:03:15.168Z,6.18
2022-11-28T19:05:17.068Z,5.98
2022-11-28T19:07:20.648Z,6.16
2022-11-28T19:09:22.850Z,6.11
2022-11-28T19:11:25.866Z,6.19
2022-11-28T19:13:28.189Z,5.88
2022-11-28T19:15:30.023Z,6.00
2022-11-28T19:17:34.195Z,6.02
2022-11-28T19:19:39.946Z,5.65
2022-11-28T19:21:43.908Z,6.06
2022-11-28T19:23:49.094Z,5.97
2022-11-28T19:25:51.827Z,6.11
2022-11-28T19:27:53.670Z,5.67
2022-11-28T19:29:55.505Z,5.94
2022-11-28T19:31:57.804Z,5.90
2022-11-28T19:34:02.912Z,5.89
2022-11-28T19:36:08.309Z,5.84
2022-11-28T19:38:11.686Z,6.00
2022-11-28T19:40:14.407Z,6.06
2022-11-28T19:42:17.541Z,6.28
2022-11-28T19:44:24.779Z,5.98
2022-11-28T19:46:31.984Z,5.88
2022-11-28T19:48:38.580Z,5.89
2022-11-28T19:50:48.486Z,6.02
2022-11-28T19:52:50.392Z,5.93
2022-11-28T19:54:53.232Z,5.95
2022-11-28T19:56:55.088Z,5.73
2022-11-28T19:58:56.944Z,5.52
2022-11-28T20:01:19.710Z,5.66
2022-11-28T20:03:21.758Z,5.70
2022-11-28T20:05:24.455Z,5.56
2022-11-28T20:07:28.842Z,5.44
2022-11-28T20:09:31.098Z,5.82
2022-11-28T20:11:36.546Z,5.82
2022-11-28T20:13:39.355Z,6.00
2022-11-28T20:15:41.533Z,5.94
2022-11-28T20:17:45.002Z,5.75
2022-11-28T20:19:48.115Z,5.73
2022-11-28T20:21:50.237Z,5.64
2022-11-28T20:24:12.151Z,5.78
2022-11-28T20:26:15.746Z,5.53
2022-11-28T20:28:17.580Z,5.68
2022-11-28T20:30:19.447Z,5.35
2022-11-28T20:32:21.578Z,5.38
2022-11-28T20:34:23.505Z,5.50
2022-11-28T20:36:29.116Z,5.26
2022-11-28T20:38:31.719Z,5.38
2022-11-28T20:40:33.794Z,5.43
2022-11-28T20:42:39.774Z,5.56
2022-11-28T20:44:42.357Z,5.60
2022-11-28T20:46:46.436Z,5.36
2022-11-28T20:48:48.326Z,5.64
2022-11-28T20:50:50.444Z,5.38
2022-11-28T20:52:52.517Z,5.73
2022-11-28T20:54:55.486Z,5.37
2022-11-28T20:57:20.177Z,5.36
2022-11-28T20:59:19.631Z,5.76
2022-11-28T21:01:24.681Z,5.75
2022-11-28T21:03:27.070Z,5.74
2022-11-28T21:05:30.373Z,5.08
2022-11-28T21:07:32.745Z,5.27
2022-11-28T21:09:34.587Z,5.31
2022-11-28T21:11:56.227Z,5.22
2022-11-28T21:13:58.842Z,5.25
2022-11-28T21:16:06.417Z,5.43
2022-11-28T21:18:09.286Z,5.57
2022-11-28T21:20:12.204Z,5.76
2022-11-28T21:22:13.997Z,5.48
2022-11-28T21:24:16.318Z,5.60
2022-11-28T21:26:24.930Z,5.41
2022-11-28T21:28:30.970Z,5.46
2022-11-28T21:30:33.606Z,5.67
2022-11-28T21:32:35.647Z,5.75
2022-11-28T21:34:37.457Z,5.65
2022-11-28T21:36:39.672Z,5.60
2022-11-28T21:38:41.490Z,5.33
2022-11-28T21:40:43.246Z,5.46
2022-11-28T21:42:45.397Z,5.27
2022-11-28T21:44:47.187Z,5.59
2022-11-28T21:46:49.023Z,5.65
2022-11-28T21:48:51.227Z,5.56
2022-11-28T21:50:54.202Z,5.53
2022-11-28T21:52:56.555Z,5.62
2022-11-28T21:54:58.767Z,5.25
2022-11-28T21:57:00.577Z,5.43
2022-11-28T21:59:02.425Z,5.60
2022-11-28T22:01:07.805Z,5.60
2022-11-28T22:03:14.119Z,5.58
2022-11-28T22:05:16.416Z,5.76
2022-11-28T22:07:18.669Z,5.37
2022-11-28T22:09:20.551Z,5.38
2022-11-28T22:11:22.755Z,5.50
2022-11-28T22:13:24.549Z,5.46
2022-11-28T22:15:26.338Z,5.50
2022-11-28T22:17:28.514Z,5.64
2022-11-28T22:19:30.280Z,5.17
2022-11-28T22:23:55.100Z,5.40
2022-11-28T22:25:57.114Z,5.58
2022-11-28T22:27:58.902Z,5.60
2022-11-28T22:30:01.039Z,5.79
2022-11-28T22:32:03.756Z,5.74
2022-11-28T22:34:05.945Z,5.60
2022-11-28T22:36:16.095Z,5.75
2022-11-28T22:38:18.303Z,5.74
2022-11-28T22:40:21.129Z,5.70
2022-11-28T22:42:23.008Z,5.75
2022-11-28T22:44:25.331Z,5.30
2022-11-28T22:46:27.714Z,5.34
2022-11-28T22:48:31.014Z,5.10
2022-11-28T22:50:37.353Z,5.25
2022-11-28T22:52:41.840Z,5.48
2022-11-28T22:54:44.333Z,5.33
2022-11-28T22:56:46.339Z,5.42
2022-11-28T22:58:48.748Z,5.60
2022-11-28T23:00:50.910Z,5.50
2022-11-28T23:02:52.807Z,5.40
2022-11-28T23:04:54.685Z,5.31
2022-11-28T23:06:56.843Z,5.51
2022-11-28T23:09:00.237Z,5.62
2022-11-28T23:11:09.945Z,5.10
2022-11-28T23:13:12.138Z,5.70
2022-11-28T23:15:14.168Z,5.78
2022-11-28T23:17:16.331Z,5.76
2022-11-28T23:19:19.284Z,5.55
2022-11-28T23:21:21.910Z,5.51
2022-11-28T23:23:23.994Z,5.67
2022-11-28T23:25:25.827Z,5.52
2022-11-28T23:27:30.645Z,5.55
2022-11-28T23:29:32.874Z,5.44
2022-11-28T23:31:37.727Z,5.59
2022-11-28T23:33:40.426Z,5.64
2022-11-28T23:35:42.515Z,5.36
2022-11-28T23:37:44.293Z,5.50
2022-11-28T23:39:46.654Z,5.53
2022-11-28T23:41:48.855Z,5.71
2022-11-28T23:43:51.075Z,5.69
2022-11-28T23:45:53.325Z,5.58
2022-11-28T23:47:55.255Z,5.56
2022-11-28T23:49:57.026Z,5.30
2022-11-28T23:51:59.193Z,5.21
2022-11-28T23:54:01.964Z,5.55
2022-11-28T23:56:12.600Z,5.66
2022-11-28T23:58:15.166Z,5.74
